Time;durP1;ratioP1;P1;durP2;ratioP2;P2;SDS_P1;SDS_P2;PMS_P1;PMS_P2;Temp;Humidity;BMP_temperature;BMP_pressure;BME280_temperature;BME280_humidity;BME280_pressure;Samples;Min_cycle;Max_cycle;Signal;HPM_P1;HPM_P2
2022/06/10 00:00:48;;;;;;;10.43;1.35;;;;;;;;;;4989408;28;20046;-61
2022/06/10 00:03:15;;;;;;;4.72;1.10;;;;;;;;;;4987630;28;20022;-61
2022/06/10 00:05:43;;;;;;;3.08;1.52;;;;;;;;;;4990009;28;20046;-61
2022/06/10 00:08:12;;;;;;;6.00;1.40;;;;;;;;;;4988260;28;20034;-61
2022/06/10 00:10:39;;;;;;;3.50;1.20;;;;;;;;;;4986400;28;20033;-61
2022/06/10 00:13:05;;;;;;;3.35;1.20;;;;;;;;;;4987770;28;20446;-62
2022/06/10 00:15:32;;;;;;;5.03;1.88;;;;;;;;;;4989386;28;20535;-61
2022/06/10 00:17:58;;;;;;;3.03;1.38;;;;;;;;;;4988384;28;20031;-61
2022/06/10 00:20:27;;;;;;;2.85;1.05;;;;;;;;;;4989092;28;20046;-61
2022/06/10 00:22:53;;;;;;;3.75;1.38;;;;;;;;;;4986152;28;20478;-61
2022/06/10 00:25:20;;;;;;;3.55;1.52;;;;;;;;;;4986981;28;20046;-61
2022/06/10 00:27:46;;;;;;;1.45;1.02;;;;;;;;;;4989381;28;21949;-61
2022/06/10 00:30:14;;;;;;;4.60;1.10;;;;;;;;;;4985500;28;20050;-61
2022/06/10 00:32:40;;;;;;;3.53;1.15;;;;;;;;;;4987517;28;20037;-61
2022/06/10 00:35:07;;;;;;;2.88;1.63;;;;;;;;;;4987824;28;20034;-61
2022/06/10 00:37:32;;;;;;;3.53;1.40;;;;;;;;;;4983997;28;20487;-61
2022/06/10 00:39:58;;;;;;;5.68;1.50;;;;;;;;;;4983638;28;20061;-61
2022/06/10 00:42:24;;;;;;;2.83;1.02;;;;;;;;;;4986893;28;20026;-61
2022/06/10 00:44:52;;;;;;;6.88;1.15;;;;;;;;;;4983468;28;20045;-61
2022/06/10 00:47:21;;;;;;;9.90;1.98;;;;;;;;;;4967450;28;20054;-61
2022/06/10 00:49:52;;;;;;;4.45;1.25;;;;;;;;;;4991315;28;20038;-61
2022/06/10 00:52:28;;;;;;;3.72;1.05;;;;;;;;;;4984502;28;20026;-61
2022/06/10 00:54:55;;;;;;;3.88;1.30;;;;;;;;;;4983195;28;20697;-61
2022/06/10 00:57:25;;;;;;;3.58;1.00;;;;;;;;;;4982263;28;20435;-61
2022/06/10 00:59:57;;;;;;;3.60;1.20;;;;;;;;;;4985384;28;20034;-60
2022/06/10 01:02:25;;;;;;;5.05;1.50;;;;;;;;;;4984982;28;20037;-61
2022/06/10 01:04:55;;;;;;;5.25;0.95;;;;;;;;;;4986239;28;20113;-61
2022/06/10 01:07:26;;;;;;;4.38;1.42;;;;;;;;;;4982973;28;20027;-61
2022/06/10 01:09:53;;;;;;;9.43;1.80;;;;;;;;;;4983985;28;20034;-56
2022/06/10 01:12:35;;;;;;;5.95;1.40;;;;;;;;;;4984655;28;20133;-61
2022/06/10 01:15:39;;;;;;;11.05;1.77;;;;;;;;;;4982335;28;20510;-61
2022/06/10 01:18:21;;;;;;;3.42;1.20;;;;;;;;;;4983543;28;20407;-61
2022/06/10 01:20:46;;;;;;;6.35;1.40;;;;;;;;;;4985960;28;20046;-61
2022/06/10 01:23:50;;;;;;;4.70;1.20;;;;;;;;;;4983005;28;20368;-61
2022/06/10 01:29:31;;;;;;;4.47;1.40;;;;;;;;;;4983843;28;20042;-61
2022/06/10 01:32:01;;;;;;;3.55;1.38;;;;;;;;;;4981915;28;20166;-61
2022/06/10 01:35:12;;;;;;;1.83;1.10;;;;;;;;;;4985562;28;20038;-61
2022/06/10 01:38:04;;;;;;;6.03;1.50;;;;;;;;;;4939865;29;20196;-60
2022/06/10 01:41:04;;;;;;;3.33;1.10;;;;;;;;;;4933641;29;20047;-60
2022/06/10 01:43:59;;;;;;;4.32;1.25;;;;;;;;;;4932428;29;20110;-61
2022/06/10 01:46:35;;;;;;;4.85;1.48;;;;;;;;;;4933937;29;20045;-61
2022/06/10 01:49:09;;;;;;;8.68;1.55;;;;;;;;;;4933490;29;20035;-61
2022/06/10 01:52:01;;;;;;;5.40;0.95;;;;;;;;;;4936934;29;20035;-61
2022/06/10 01:54:52;;;;;;;4.90;1.38;;;;;;;;;;4936978;29;20043;-61
2022/06/10 01:57:45;;;;;;;3.83;1.20;;;;;;;;;;4926646;29;20644;-61
2022/06/10 02:00:12;;;;;;;;;;;;;;;;;;4924822;29;20035;-60
2022/06/10 02:02:46;;;;;;;3.58;1.17;;;;;;;;;;4921600;29;19925;-61
2022/06/10 02:05:17;;;;;;;4.72;1.00;;;;;;;;;;4926901;29;20812;-60
2022/06/10 02:07:49;;;;;;;7.50;1.02;;;;;;;;;;4937323;29;20805;-61
2022/06/10 02:10:36;;;;;;;3.85;1.13;;;;;;;;;;4933767;29;20035;-61
2022/06/10 02:13:08;;;;;;;4.82;1.00;;;;;;;;;;4938563;29;20046;-61
2022/06/10 02:15:45;;;;;;;;;;;;;;;;;;4979903;28;20045;-61
2022/06/10 02:18:21;;;;;;;3.80;1.15;;;;;;;;;;4984876;28;19958;-60
2022/06/10 02:20:54;;;;;;;4.80;1.40;;;;;;;;;;4983083;28;20067;-61
2022/06/10 02:23:27;;;;;;;3.78;1.20;;;;;;;;;;4984206;28;20018;-61
2022/06/10 02:25:57;;;;;;;8.35;1.30;;;;;;;;;;4981272;28;20495;-61
2022/06/10 02:28:28;;;;;;;5.32;1.25;;;;;;;;;;4986663;28;20065;-49
2022/06/10 02:30:59;;;;;;;2.63;1.25;;;;;;;;;;4982197;28;20092;-50
2022/06/10 02:33:24;;;;;;;2.58;1.17;;;;;;;;;;4982825;28;20142;-50
2022/06/10 02:36:05;;;;;;;6.40;1.90;;;;;;;;;;4984692;28;20059;-53
2022/06/10 02:39:21;;;;;;;7.65;1.20;;;;;;;;;;4983577;28;20109;-50
2022/06/10 02:41:57;;;;;;;2.55;1.30;;;;;;;;;;4944696;29;20047;-48
2022/06/10 02:44:55;;;;;;;4.55;1.20;;;;;;;;;;4940802;28;20274;-49
2022/06/10 02:47:33;;;;;;;6.15;1.65;;;;;;;;;;4938938;29;20496;-46
2022/06/10 02:49:59;;;;;;;6.28;1.25;;;;;;;;;;4943632;28;20445;-49
2022/06/10 02:52:33;;;;;;;5.15;1.60;;;;;;;;;;4944969;29;20043;-48
2022/06/10 02:54:58;;;;;;;4.45;1.23;;;;;;;;;;4943487;28;20115;-49
2022/06/10 03:03:13;;;;;;;3.28;1.77;;;;;;;;;;4943553;28;20825;-49
2022/06/10 03:05:59;;;;;;;6.95;1.10;;;;;;;;;;4941980;28;20045;-46
2022/06/10 03:08:31;;;;;;;12.50;1.13;;;;;;;;;;4947100;28;20118;-46
2022/06/10 03:11:11;;;;;;;;;;;;;;;;;;4943521;29;20039;-49
2022/06/10 03:13:53;;;;;;;4.35;1.13;;;;;;;;;;4945347;28;20351;-50
2022/06/10 03:16:52;;;;;;;8.27;1.38;;;;;;;;;;4950484;28;20435;-48
2022/06/10 03:19:25;;;;;;;5.40;1.20;;;;;;;;;;4987585;28;20030;-49
2022/06/10 03:21:52;;;;;;;3.05;1.45;;;;;;;;;;4987271;28;20487;-46
2022/06/10 03:24:34;;;;;;;5.65;1.55;;;;;;;;;;4983822;28;20046;-53
2022/06/10 03:27:09;;;;;;;6.20;1.30;;;;;;;;;;4988178;28;20057;-46
2022/06/10 03:29:56;;;;;;;3.08;1.35;;;;;;;;;;4988289;28;20046;-46
2022/06/10 03:32:35;;;;;;;5.72;1.17;;;;;;;;;;4987606;28;20201;-46
2022/06/10 03:35:19;;;;;;;5.25;1.15;;;;;;;;;;4984309;28;20035;-46
2022/06/10 03:37:46;;;;;;;13.30;1.52;;;;;;;;;;4984797;28;20387;-46
2022/06/10 03:40:19;;;;;;;5.53;1.38;;;;;;;;;;4988459;28;20031;-46
2022/06/10 03:42:48;;;;;;;7.25;1.50;;;;;;;;;;4989939;28;20053;-47
2022/06/10 03:45:19;;;;;;;8.35;1.70;;;;;;;;;;4985982;28;20027;-46
2022/06/10 03:47:45;;;;;;;7.50;1.20;;;;;;;;;;4987977;28;20034;-48
2022/06/10 03:50:15;;;;;;;6.30;1.17;;;;;;;;;;4987234;28;20148;-47
2022/06/10 03:52:42;;;;;;;3.65;1.33;;;;;;;;;;4985162;28;20503;-47
2022/06/10 03:55:09;;;;;;;4.60;1.20;;;;;;;;;;4986173;28;20041;-47
2022/06/10 03:57:35;;;;;;;6.03;1.30;;;;;;;;;;4986130;28;20405;-47
2022/06/10 04:00:05;;;;;;;5.60;1.45;;;;;;;;;;4984779;28;20031;-49
2022/06/10 04:02:32;;;;;;;3.60;1.27;;;;;;;;;;4985536;28;20030;-48
2022/06/10 04:04:58;;;;;;;2.60;1.10;;;;;;;;;;4985685;28;20045;-48
2022/06/10 04:07:24;;;;;;;4.20;1.17;;;;;;;;;;4988797;28;20046;-47
2022/06/10 04:09:49;;;;;;;3.97;1.92;;;;;;;;;;4989841;28;20018;-46
2022/06/10 04:12:16;;;;;;;2.13;1.17;;;;;;;;;;4986026;28;20031;-46
2022/06/10 04:14:44;;;;;;;3.78;0.93;;;;;;;;;;4985844;28;20039;-46
2022/06/10 04:17:11;;;;;;;8.30;2.10;;;;;;;;;;4983723;28;20030;-48
2022/06/10 04:19:37;;;;;;;4.90;1.30;;;;;;;;;;4987021;28;20037;-47
2022/06/10 04:22:03;;;;;;;2.38;0.93;;;;;;;;;;4987162;28;20372;-51
2022/06/10 04:24:29;;;;;;;3.38;1.08;;;;;;;;;;4987217;28;20018;-47
2022/06/10 04:26:56;;;;;;;5.85;1.33;;;;;;;;;;4985437;28;20074;-46
2022/06/10 04:29:22;;;;;;;4.75;1.30;;;;;;;;;;4984627;28;20034;-46
2022/06/10 04:31:47;;;;;;;3.53;1.10;;;;;;;;;;4989172;28;20026;-49
2022/06/10 04:34:14;;;;;;;6.28;1.85;;;;;;;;;;4985878;28;20038;-46
2022/06/10 04:36:40;;;;;;;6.65;1.52;;;;;;;;;;4987756;28;20132;-49
2022/06/10 04:39:06;;;;;;;10.20;1.35;;;;;;;;;;4986678;28;20125;-47
2022/06/10 04:41:33;;;;;;;5.55;1.52;;;;;;;;;;4989368;28;20173;-47
2022/06/10 04:43:59;;;;;;;3.67;1.50;;;;;;;;;;4982805;28;20101;-50
2022/06/10 04:46:37;;;;;;;5.07;1.25;;;;;;;;;;4987122;28;20034;-47
2022/06/10 04:49:05;;;;;;;5.40;1.38;;;;;;;;;;4989700;28;20077;-46
2022/06/10 04:51:31;;;;;;;3.50;2.03;;;;;;;;;;4984009;28;20396;-46
2022/06/10 04:53:57;;;;;;;4.28;1.33;;;;;;;;;;4985409;28;20034;-46
2022/06/10 04:56:22;;;;;;;4.00;1.38;;;;;;;;;;4982343;28;20173;-46
2022/06/10 04:58:48;;;;;;;5.68;1.50;;;;;;;;;;4971031;28;20022;-46
2022/06/10 05:01:14;;;;;;;4.38;1.33;;;;;;;;;;4983269;28;20517;-46
2022/06/10 05:03:40;;;;;;;5.00;1.50;;;;;;;;;;4982065;28;20022;-48
2022/06/10 05:06:06;;;;;;;7.72;1.40;;;;;;;;;;4983023;28;20454;-48
2022/06/10 05:08:32;;;;;;;3.60;1.42;;;;;;;;;;4983295;28;20031;-46
2022/06/10 05:10:58;;;;;;;4.55;1.25;;;;;;;;;;4984436;28;20078;-46
2022/06/10 05:13:23;;;;;;;5.65;1.27;;;;;;;;;;4982774;28;20057;-49
2022/06/10 05:15:49;;;;;;;5.90;1.23;;;;;;;;;;4986512;28;20498;-48
2022/06/10 05:18:18;;;;;;;4.07;1.33;;;;;;;;;;4977701;28;20037;-47
2022/06/10 05:20:44;;;;;;;8.40;2.15;;;;;;;;;;4983774;28;20124;-50
2022/06/10 05:23:12;;;;;;;1.63;1.08;;;;;;;;;;4981642;28;20519;-47
2022/06/10 05:25:38;;;;;;;4.60;1.30;;;;;;;;;;4977984;28;20047;-50
2022/06/10 05:28:05;;;;;;;5.40;1.30;;;;;;;;;;4978855;28;20042;-50
2022/06/10 05:30:32;;;;;;;3.17;1.45;;;;;;;;;;4984421;28;20064;-47
2022/06/10 05:32:59;;;;;;;2.40;1.30;;;;;;;;;;4982158;28;20039;-46
2022/06/10 05:35:25;;;;;;;7.18;1.73;;;;;;;;;;4983445;28;20434;-47
2022/06/10 05:37:52;;;;;;;2.60;1.00;;;;;;;;;;4982021;28;20030;-50
2022/06/10 05:40:19;;;;;;;2.17;1.10;;;;;;;;;;4981375;28;20038;-48
2022/06/10 05:42:45;;;;;;;4.13;1.40;;;;;;;;;;4985025;28;20034;-46
2022/06/10 05:45:13;;;;;;;4.88;1.20;;;;;;;;;;4979514;28;20037;-46
2022/06/10 05:47:40;;;;;;;6.30;1.20;;;;;;;;;;4982814;28;20027;-47
2022/06/10 05:50:15;;;;;;;3.97;1.13;;;;;;;;;;4985382;28;20030;-49
2022/06/10 05:52:41;;;;;;;5.43;1.42;;;;;;;;;;4978922;28;20125;-46
2022/06/10 05:55:09;;;;;;;7.20;1.48;;;;;;;;;;4983011;28;20117;-46
2022/06/10 05:57:34;;;;;;;4.18;1.30;;;;;;;;;;4983095;28;20034;-47
2022/06/10 06:00:00;;;;;;;4.70;1.48;;;;;;;;;;4981764;28;20110;-49
2022/06/10 06:02:26;;;;;;;5.95;1.30;;;;;;;;;;4982397;28;20030;-46
2022/06/10 06:04:53;;;;;;;4.03;1.10;;;;;;;;;;4983220;28;20042;-48
2022/06/10 06:07:25;;;;;;;6.05;2.03;;;;;;;;;;4982424;28;20121;-49
2022/06/10 06:09:51;;;;;;;5.32;1.45;;;;;;;;;;4984392;28;20033;-46
2022/06/10 06:12:18;;;;;;;7.00;1.35;;;;;;;;;;4984176;28;20113;-47
2022/06/10 06:14:44;;;;;;;10.82;1.58;;;;;;;;;;4980912;28;20030;-46
2022/06/10 06:17:12;;;;;;;2.72;1.38;;;;;;;;;;4980220;28;20022;-48
2022/06/10 06:19:39;;;;;;;3.72;1.25;;;;;;;;;;4984800;28;20117;-52
2022/06/10 06:22:04;;;;;;;4.70;1.60;;;;;;;;;;4982842;28;20027;-47
2022/06/10 06:24:30;;;;;;;3.65;1.30;;;;;;;;;;4980726;28;20042;-51
2022/06/10 06:26:56;;;;;;;2.83;1.23;;;;;;;;;;4982538;28;20042;-47
2022/06/10 06:29:24;;;;;;;6.45;1.85;;;;;;;;;;4981864;28;20054;-48
2022/06/10 06:31:52;;;;;;;4.05;1.70;;;;;;;;;;4978292;28;20030;-46
2022/06/10 06:34:20;;;;;;;6.53;1.35;;;;;;;;;;4980883;28;20517;-49
2022/06/10 06:36:48;;;;;;;7.55;1.73;;;;;;;;;;4983275;28;20062;-47
2022/06/10 06:39:16;;;;;;;2.85;1.10;;;;;;;;;;4981108;28;20030;-50
2022/06/10 06:41:42;;;;;;;4.13;1.45;;;;;;;;;;4978005;28;20030;-47
2022/06/10 06:44:08;;;;;;;10.27;1.80;;;;;;;;;;4983653;28;20022;-48
2022/06/10 06:46:37;;;;;;;4.25;1.30;;;;;;;;;;4986157;28;20369;-50
2022/06/10 06:49:06;;;;;;;4.15;1.40;;;;;;;;;;4989410;28;20066;-50
2022/06/10 06:51:32;;;;;;;6.07;1.67;;;;;;;;;;4983487;28;20026;-47
2022/06/10 06:53:58;;;;;;;3.55;1.20;;;;;;;;;;4987608;28;20368;-53
2022/06/10 06:56:25;;;;;;;7.57;1.30;;;;;;;;;;4989592;28;20121;-47
2022/06/10 06:58:51;;;;;;;6.88;1.45;;;;;;;;;;4988014;28;20075;-47
2022/06/10 07:01:17;;;;;;;3.83;1.40;;;;;;;;;;4986066;28;20113;-50
2022/06/10 07:03:43;;;;;;;12.45;1.75;;;;;;;;;;4984447;28;20116;-52
2022/06/10 07:06:10;;;;;;;5.00;1.30;;;;;;;;;;4983233;28;20084;-47
2022/06/10 07:08:37;;;;;;;15.80;1.50;;;;;;;;;;4989698;28;20364;-47
2022/06/10 07:11:05;;;;;;;3.60;1.35;;;;;;;;;;4987638;28;20050;-47
2022/06/10 07:13:31;;;;;;;6.45;1.45;;;;;;;;;;4984102;28;20027;-51
2022/06/10 07:15:58;;;;;;;5.70;1.40;;;;;;;;;;4984718;28;20031;-49
2022/06/10 07:18:24;;;;;;;9.93;1.48;;;;;;;;;;4985969;28;20380;-52
2022/06/10 07:20:50;;;;;;;9.68;1.35;;;;;;;;;;4984224;28;20436;-47
2022/06/10 07:23:17;;;;;;;4.32;1.33;;;;;;;;;;4982138;28;20026;-49
2022/06/10 07:25:42;;;;;;;6.45;1.30;;;;;;;;;;4980283;28;20418;-48
2022/06/10 07:28:11;;;;;;;2.83;1.33;;;;;;;;;;4985519;28;20027;-48
2022/06/10 07:30:38;;;;;;;4.15;1.40;;;;;;;;;;4987167;28;20042;-48
2022/06/10 07:33:04;;;;;;;9.20;1.73;;;;;;;;;;4986707;28;20022;-52
2022/06/10 07:35:30;;;;;;;6.93;1.30;;;;;;;;;;4986081;28;20037;-46
2022/06/10 07:38:00;;;;;;;4.60;1.45;;;;;;;;;;4986201;28;20166;-50
2022/06/10 07:43:12;;;;;;;4.65;1.10;;;;;;;;;;4980085;28;20117;-49
2022/06/10 07:45:39;;;;;;;3.35;1.13;;;;;;;;;;4984091;28;20432;-48
2022/06/10 07:48:05;;;;;;;8.68;1.30;;;;;;;;;;4989359;28;20030;-47
2022/06/10 07:50:31;;;;;;;8.68;1.52;;;;;;;;;;4981576;28;20032;-49
2022/06/10 07:52:57;;;;;;;10.02;1.88;;;;;;;;;;4981240;28;20026;-48
2022/06/10 07:55:22;;;;;;;2.35;1.20;;;;;;;;;;4982496;28;20039;-48
2022/06/10 07:57:48;;;;;;;4.78;1.48;;;;;;;;;;4986712;28;20030;-50
2022/06/10 08:00:15;;;;;;;7.22;1.30;;;;;;;;;;4985258;28;20046;-50
2022/06/10 08:02:41;;;;;;;4.68;1.60;;;;;;;;;;4984299;28;20030;-49
2022/06/10 08:05:10;;;;;;;2.78;1.10;;;;;;;;;;4986704;28;20497;-48
2022/06/10 08:07:37;;;;;;;8.93;1.33;;;;;;;;;;4981784;28;20045;-50
2022/06/10 08:10:05;;;;;;;7.75;1.30;;;;;;;;;;4985047;28;20073;-52
2022/06/10 08:12:31;;;;;;;3.70;1.40;;;;;;;;;;4981423;28;20023;-50
2022/06/10 08:14:57;;;;;;;3.58;1.15;;;;;;;;;;4986398;28;20031;-50
2022/06/10 08:17:22;;;;;;;2.47;1.30;;;;;;;;;;4987218;28;20053;-49
2022/06/10 08:19:48;;;;;;;7.60;1.88;;;;;;;;;;4986243;28;20403;-51
2022/06/10 08:22:32;;;;;;;4.28;1.30;;;;;;;;;;4985563;28;20531;-51
2022/06/10 08:24:59;;;;;;;5.57;1.38;;;;;;;;;;4986168;28;20584;-51
2022/06/10 08:27:24;;;;;;;2.42;1.08;;;;;;;;;;4985954;28;20483;-50
2022/06/10 08:29:50;;;;;;;3.33;1.02;;;;;;;;;;4981390;28;20037;-47
2022/06/10 08:32:16;;;;;;;6.35;1.20;;;;;;;;;;4984743;28;20050;-50
2022/06/10 08:34:42;;;;;;;4.53;1.25;;;;;;;;;;4985313;28;20045;-49
2022/06/10 08:37:11;;;;;;;5.80;1.08;;;;;;;;;;4984349;28;20036;-49
2022/06/10 08:39:37;;;;;;;9.25;1.33;;;;;;;;;;4984761;28;20026;-48
2022/06/10 08:42:08;;;;;;;4.35;1.40;;;;;;;;;;4981333;28;20394;-50
2022/06/10 08:44:42;;;;;;;5.10;1.52;;;;;;;;;;4986452;28;20108;-50
2022/06/10 08:47:32;;;;;;;3.13;1.05;;;;;;;;;;4985018;28;20038;-48
2022/06/10 08:50:17;;;;;;;6.43;1.45;;;;;;;;;;4983660;28;20395;-49
2022/06/10 08:52:49;;;;;;;4.15;1.20;;;;;;;;;;4983185;28;20440;-48
2022/06/10 08:55:23;;;;;;;10.13;1.48;;;;;;;;;;4979330;28;20104;-49
2022/06/10 08:57:49;;;;;;;3.47;1.10;;;;;;;;;;4983990;28;20030;-50
2022/06/10 09:00:23;;;;;;;2.83;1.42;;;;;;;;;;4983547;28;20034;-48
2022/06/10 09:02:51;;;;;;;2.72;1.55;;;;;;;;;;4983274;28;20097;-48
2022/06/10 09:05:29;;;;;;;7.35;1.70;;;;;;;;;;4985257;28;20065;-48
2022/06/10 09:08:01;;;;;;;4.15;1.20;;;;;;;;;;4985768;28;20036;-50
2022/06/10 09:10:38;;;;;;;5.88;1.50;;;;;;;;;;4986202;28;20022;-49
2022/06/10 09:13:18;;;;;;;5.07;1.40;;;;;;;;;;4981313;28;20034;-51
2022/06/10 09:16:19;;;;;;;8.43;1.20;;;;;;;;;;4986146;28;20066;-47
2022/06/10 09:19:09;;;;;;;5.47;1.52;;;;;;;;;;4901233;29;20047;-48
2022/06/10 09:21:40;;;;;;;18.77;1.63;;;;;;;;;;4906147;29;20554;-51
2022/06/10 09:24:26;;;;;;;5.47;1.25;;;;;;;;;;4903125;29;20354;-47
2022/06/10 09:27:22;;;;;;;6.38;1.30;;;;;;;;;;4902678;29;20187;-51
2022/06/10 09:29:48;;;;;;;4.97;1.50;;;;;;;;;;4900109;29;20072;-47
2022/06/10 09:32:19;;;;;;;7.80;1.30;;;;;;;;;;4905022;29;20146;-48
2022/06/10 09:35:01;;;;;;;3.17;1.25;;;;;;;;;;4906130;29;20036;-51
2022/06/10 09:37:49;;;;;;;3.05;1.35;;;;;;;;;;4903734;29;20454;-50
2022/06/10 09:40:38;;;;;;;7.25;1.30;;;;;;;;;;4907565;29;20028;-51
2022/06/10 09:43:22;;;;;;;4.57;1.33;;;;;;;;;;4905996;29;20148;-52
2022/06/10 09:46:34;;;;;;;2.42;1.10;;;;;;;;;;4907871;29;20449;-51
2022/06/10 09:49:12;;;;;;;6.68;1.60;;;;;;;;;;4907143;29;20048;-48
2022/06/10 09:52:01;;;;;;;2.78;1.15;;;;;;;;;;4907485;29;20040;-46
2022/06/10 09:54:48;;;;;;;4.00;1.65;;;;;;;;;;4904530;28;20450;-47
2022/06/10 09:57:39;;;;;;;6.90;1.58;;;;;;;;;;4965941;28;20045;-51
2022/06/10 10:00:24;;;;;;;8.45;1.27;;;;;;;;;;4965783;28;20026;-48
2022/06/10 10:03:02;;;;;;;5.22;1.40;;;;;;;;;;4963654;28;20046;-48
2022/06/10 10:05:51;;;;;;;4.03;1.40;;;;;;;;;;4963495;28;20546;-52
2022/06/10 10:08:29;;;;;;;3.92;1.25;;;;;;;;;;4963363;28;20047;-47
2022/06/10 10:11:02;;;;;;;6.38;1.67;;;;;;;;;;4962491;28;20572;-50
2022/06/10 10:13:50;;;;;;;3.67;1.10;;;;;;;;;;4965439;28;20027;-47
2022/06/10 10:16:34;;;;;;;6.35;1.42;;;;;;;;;;4960583;28;20050;-47
2022/06/10 10:19:14;;;;;;;5.43;1.20;;;;;;;;;;4959845;28;20122;-48
2022/06/10 10:21:43;;;;;;;5.47;1.25;;;;;;;;;;4960888;28;20042;-48
2022/06/10 10:24:20;;;;;;;2.97;1.20;;;;;;;;;;4962311;28;20038;-47
2022/06/10 10:26:49;;;;;;;2.92;1.10;;;;;;;;;;4975830;28;20397;-49
2022/06/10 10:29:24;;;;;;;3.08;1.27;;;;;;;;;;4976354;28;20798;-47
2022/06/10 10:32:03;;;;;;;4.15;1.67;;;;;;;;;;4979815;28;20030;-52
2022/06/10 10:34:36;;;;;;;3.10;1.27;;;;;;;;;;4978041;28;20058;-47
2022/06/10 10:37:18;;;;;;;5.13;2.00;;;;;;;;;;4980928;28;20034;-50
2022/06/10 10:39:50;;;;;;;1.92;1.20;;;;;;;;;;4978262;28;20034;-51
2022/06/10 10:42:22;;;;;;;2.58;1.33;;;;;;;;;;4978930;28;20060;-47
2022/06/10 10:45:17;;;;;;;3.25;1.17;;;;;;;;;;4978412;28;20014;-52
2022/06/10 10:47:52;;;;;;;6.75;1.70;;;;;;;;;;4976046;28;20026;-51
2022/06/10 10:50:39;;;;;;;5.25;1.35;;;;;;;;;;4979787;28;20050;-51
2022/06/10 10:53:29;;;;;;;5.40;1.30;;;;;;;;;;4980164;28;20088;-47
2022/06/10 10:55:58;;;;;;;5.68;1.40;;;;;;;;;;4982331;28;20041;-48
2022/06/10 10:58:35;;;;;;;3.35;1.20;;;;;;;;;;4983495;28;20042;-50
2022/06/10 11:01:43;;;;;;;4.47;1.20;;;;;;;;;;4982661;28;20475;-49
2022/06/10 11:03:56;;;;;;;14.43;1.88;;;;;;;;;;4984379;28;20113;-50
2022/06/10 11:06:27;;;;;;;3.55;1.42;;;;;;;;;;4982054;28;20042;-49
2022/06/10 11:08:59;;;;;;;4.65;1.75;;;;;;;;;;4986317;28;20030;-49
2022/06/10 11:11:35;;;;;;;3.28;1.13;;;;;;;;;;4981935;28;20424;-48
2022/06/10 11:14:05;;;;;;;11.48;1.38;;;;;;;;;;4980515;28;20030;-52
2022/06/10 11:16:41;;;;;;;8.70;1.75;;;;;;;;;;4983356;28;20038;-52
2022/06/10 11:19:16;;;;;;;19.85;1.67;;;;;;;;;;4979444;28;20046;-50
2022/06/10 11:21:48;;;;;;;4.43;1.35;;;;;;;;;;4984264;28;20042;-50
2022/06/10 11:24:16;;;;;;;10.63;1.42;;;;;;;;;;4983443;28;20486;-47
2022/06/10 11:26:52;;;;;;;13.88;1.83;;;;;;;;;;4982509;28;20042;-48
2022/06/10 11:29:19;;;;;;;6.45;1.50;;;;;;;;;;4984741;28;20087;-50
2022/06/10 11:31:55;;;;;;;2.80;1.10;;;;;;;;;;4987930;28;20038;-49
2022/06/10 11:34:27;;;;;;;3.97;1.38;;;;;;;;;;4988884;28;20372;-48
2022/06/10 11:36:54;;;;;;;6.18;1.40;;;;;;;;;;4984849;28;20070;-51
2022/06/10 11:39:25;;;;;;;5.28;1.40;;;;;;;;;;4987207;28;20099;-49
2022/06/10 11:42:09;;;;;;;2.97;1.10;;;;;;;;;;4985217;28;20030;-50
2022/06/10 11:44:44;;;;;;;4.95;1.27;;;;;;;;;;4982018;28;20814;-47
2022/06/10 11:47:21;;;;;;;2.15;1.05;;;;;;;;;;4985765;28;20034;-49
2022/06/10 11:49:54;;;;;;;3.63;1.05;;;;;;;;;;4980827;28;20038;-51
2022/06/10 11:52:28;;;;;;;6.25;1.30;;;;;;;;;;4987353;28;20034;-47
2022/06/10 11:55:03;;;;;;;5.32;1.50;;;;;;;;;;4987562;28;20045;-49
2022/06/10 12:00:45;;;;;;;4.63;1.20;;;;;;;;;;4982319;28;20038;-49
2022/06/10 12:03:12;;;;;;;6.13;1.48;;;;;;;;;;4986707;28;20506;-49
2022/06/10 12:05:46;;;;;;;6.20;1.30;;;;;;;;;;4986857;28;20073;-50
2022/06/10 12:08:24;;;;;;;5.28;1.10;;;;;;;;;;4982492;28;20497;-51
2022/06/10 12:10:56;;;;;;;5.50;1.35;;;;;;;;;;4981341;28;20034;-54
2022/06/10 12:13:24;;;;;;;4.97;1.20;;;;;;;;;;4985470;28;20030;-50
2022/06/10 12:15:56;;;;;;;6.65;1.30;;;;;;;;;;4987403;28;20041;-53
2022/06/10 12:18:27;;;;;;;4.07;1.38;;;;;;;;;;4986048;28;20037;-49
2022/06/10 12:21:01;;;;;;;7.78;1.38;;;;;;;;;;4986904;28;20494;-50
2022/06/10 12:23:30;;;;;;;5.47;1.10;;;;;;;;;;4984111;28;20046;-48
2022/06/10 12:25:59;;;;;;;6.45;1.60;;;;;;;;;;4984196;28;20046;-52
2022/06/10 12:28:34;;;;;;;4.25;1.27;;;;;;;;;;4987054;28;20503;-49
2022/06/10 12:31:34;;;;;;;9.70;1.55;;;;;;;;;;4984971;28;20034;-47
2022/06/10 12:34:02;;;;;;;6.03;1.27;;;;;;;;;;4986289;28;20038;-52
2022/06/10 12:36:39;;;;;;;10.68;1.65;;;;;;;;;;4986283;28;20026;-48
2022/06/10 12:39:14;;;;;;;6.65;1.67;;;;;;;;;;4982965;28;20037;-51
2022/06/10 12:41:45;;;;;;;7.13;1.55;;;;;;;;;;4981489;28;20561;-48
2022/06/10 12:44:17;;;;;;;7.65;1.38;;;;;;;;;;4985245;28;20053;-49
2022/06/10 12:46:48;;;;;;;3.08;1.38;;;;;;;;;;4983656;28;20053;-49
2022/06/10 12:49:24;;;;;;;4.88;1.30;;;;;;;;;;4982344;28;20117;-52
2022/06/10 12:52:10;;;;;;;6.47;1.65;;;;;;;;;;4984615;28;20030;-51
2022/06/10 12:54:38;;;;;;;4.15;1.20;;;;;;;;;;4979987;28;20038;-49
2022/06/10 12:57:31;;;;;;;5.80;1.13;;;;;;;;;;4980145;28;20034;-48
2022/06/10 13:00:19;;;;;;;5.53;1.65;;;;;;;;;;4979949;28;20066;-53
2022/06/10 13:02:47;;;;;;;4.18;1.40;;;;;;;;;;4978005;28;20357;-53
2022/06/10 13:05:40;;;;;;;8.57;1.55;;;;;;;;;;4985084;28;20062;-52
2022/06/10 13:08:28;;;;;;;4.93;1.90;;;;;;;;;;4985979;28;20487;-50
2022/06/10 13:10:57;;;;;;;2.78;1.50;;;;;;;;;;4977215;28;20026;-49
2022/06/10 13:13:24;;;;;;;14.95;1.75;;;;;;;;;;4983031;28;20077;-50
2022/06/10 13:15:53;;;;;;;3.22;1.10;;;;;;;;;;4984557;28;20026;-52
2022/06/10 13:18:26;;;;;;;9.60;1.33;;;;;;;;;;4982772;28;20037;-49
2022/06/10 13:20:52;;;;;;;4.57;1.77;;;;;;;;;;4984918;28;20076;-49
2022/06/10 13:23:17;;;;;;;2.35;0.98;;;;;;;;;;4986481;28;20065;-53
2022/06/10 13:25:50;;;;;;;4.97;1.42;;;;;;;;;;4985572;28;20054;-50
2022/06/10 13:28:23;;;;;;;4.25;1.40;;;;;;;;;;4985604;28;20030;-53
2022/06/10 13:30:50;;;;;;;4.32;0.93;;;;;;;;;;4982768;28;20038;-52
2022/06/10 13:33:18;;;;;;;3.35;1.30;;;;;;;;;;4984787;28;20026;-51
2022/06/10 13:35:43;;;;;;;2.17;1.20;;;;;;;;;;4982662;28;20031;-50
2022/06/10 13:38:12;;;;;;;3.42;1.17;;;;;;;;;;4984586;28;20579;-52
2022/06/10 13:40:40;;;;;;;2.78;1.30;;;;;;;;;;4981409;28;20131;-51
2022/06/10 13:43:06;;;;;;;4.47;1.40;;;;;;;;;;4982339;28;20491;-52
2022/06/10 13:45:36;;;;;;;3.20;1.23;;;;;;;;;;4984380;28;20058;-53
2022/06/10 13:48:16;;;;;;;7.05;1.40;;;;;;;;;;4986721;28;20505;-51
2022/06/10 13:51:24;;;;;;;5.05;1.55;;;;;;;;;;4982820;28;20507;-54
2022/06/10 13:54:03;;;;;;;1.92;1.25;;;;;;;;;;4982357;28;20049;-53
2022/06/10 13:56:40;;;;;;;5.97;1.23;;;;;;;;;;4986095;28;20040;-50
2022/06/10 13:59:08;;;;;;;3.03;1.70;;;;;;;;;;4983101;28;20069;-49
2022/06/10 14:01:40;;;;;;;7.55;1.58;;;;;;;;;;4985729;28;20034;-52
2022/06/10 14:04:22;;;;;;;3.60;1.23;;;;;;;;;;4982756;28;20030;-48
2022/06/10 14:06:52;;;;;;;7.85;1.42;;;;;;;;;;4985013;28;20034;-51
2022/06/10 14:09:25;;;;;;;7.82;1.20;;;;;;;;;;4982983;28;20034;-52
2022/06/10 14:12:06;;;;;;;2.90;1.42;;;;;;;;;;4980427;28;20554;-49
2022/06/10 14:14:34;;;;;;;2.40;1.38;;;;;;;;;;4981923;28;20061;-50
2022/06/10 14:17:02;;;;;;;3.95;1.27;;;;;;;;;;4980280;28;20029;-52
2022/06/10 14:19:30;;;;;;;14.68;1.73;;;;;;;;;;4985366;28;20042;-48
2022/06/10 14:21:55;;;;;;;3.65;1.23;;;;;;;;;;4984355;28;20030;-49
2022/06/10 14:24:24;;;;;;;3.47;1.50;;;;;;;;;;4983913;28;20034;-54
2022/06/10 14:26:56;;;;;;;6.68;1.10;;;;;;;;;;4983523;28;20392;-50
2022/06/10 14:29:27;;;;;;;5.28;1.25;;;;;;;;;;4984053;28;20025;-50
2022/06/10 14:32:20;;;;;;;2.58;1.42;;;;;;;;;;4981020;28;20022;-53
2022/06/10 14:34:50;;;;;;;4.13;1.27;;;;;;;;;;4981930;28;20038;-55
2022/06/10 14:37:29;;;;;;;4.10;1.55;;;;;;;;;;4984729;28;20027;-54
2022/06/10 14:40:06;;;;;;;6.28;1.48;;;;;;;;;;4982321;28;20133;-53
2022/06/10 14:42:33;;;;;;;3.92;1.25;;;;;;;;;;4981176;28;20520;-50
2022/06/10 14:44:59;;;;;;;3.05;1.15;;;;;;;;;;4978637;28;20380;-52
2022/06/10 14:47:33;;;;;;;5.68;1.30;;;;;;;;;;4981719;28;20058;-48
2022/06/10 14:50:04;;;;;;;7.22;1.00;;;;;;;;;;4981508;28;20034;-48
2022/06/10 14:52:42;;;;;;;3.63;1.25;;;;;;;;;;4981750;28;20115;-52
2022/06/10 14:55:28;;;;;;;9.55;1.52;;;;;;;;;;4982822;28;20042;-51
2022/06/10 14:57:57;;;;;;;3.00;1.30;;;;;;;;;;4982144;28;20475;-52
2022/06/10 15:00:27;;;;;;;7.70;1.20;;;;;;;;;;4983398;28;20040;-56
2022/06/10 15:02:53;;;;;;;3.50;1.67;;;;;;;;;;4979059;28;20073;-50
2022/06/10 15:08:07;;;;;;;9.68;1.48;;;;;;;;;;4987626;28;20137;-51
2022/06/10 15:10:37;;;;;;;5.60;1.50;;;;;;;;;;4986902;28;20040;-51
2022/06/10 15:13:04;;;;;;;6.97;1.20;;;;;;;;;;4987513;28;20645;-51
2022/06/10 15:15:30;;;;;;;5.97;1.20;;;;;;;;;;4985527;28;20061;-50
2022/06/10 15:17:56;;;;;;;2.90;1.23;;;;;;;;;;4985705;28;20475;-49
2022/06/10 15:20:21;;;;;;;5.25;1.05;;;;;;;;;;4988880;28;20042;-53
2022/06/10 15:22:50;;;;;;;5.18;1.00;;;;;;;;;;4981649;28;20026;-48
2022/06/10 15:25:26;;;;;;;14.40;1.38;;;;;;;;;;4982383;28;20042;-50
2022/06/10 15:27:52;;;;;;;3.72;0.90;;;;;;;;;;4981482;28;20038;-53
2022/06/10 15:30:21;;;;;;;2.28;1.20;;;;;;;;;;4988269;28;20035;-53
2022/06/10 15:32:48;;;;;;;1.95;1.20;;;;;;;;;;4985612;28;20064;-54